sensor_id;sensor_type;location;lat;lon;timestamp;P1;durP1;ratioP1;P2;durP2;ratioP2
5553;SDS011;2800;49.528;8.666;2023-06-26T00:01:57;6.63;;;5.20;;
5553;SDS011;2800;49.528;8.666;2023-06-26T00:04:22;9.70;;;5.40;;
5553;SDS011;2800;49.528;8.666;2023-06-26T00:06:48;7.63;;;5.50;;
5553;SDS011;2800;49.528;8.666;2023-06-26T00:09:13;7.97;;;5.70;;
5553;SDS011;2800;49.528;8.666;2023-06-26T00:11:39;8.73;;;5.73;;
5553;SDS011;2800;49.528;8.666;2023-06-26T00:14:04;10.40;;;5.67;;
5553;SDS011;2800;49.528;8.666;2023-06-26T00:16:31;7.10;;;5.37;;
5553;SDS011;2800;49.528;8.666;2023-06-26T00:18:56;7.10;;;5.03;;
5553;SDS011;2800;49.528;8.666;2023-06-26T00:21:24;8.20;;;5.30;;
5553;SDS011;2800;49.528;8.666;2023-06-26T00:23:50;9.23;;;5.40;;
5553;SDS011;2800;49.528;8.666;2023-06-26T00:26:16;8.77;;;5.80;;
5553;SDS011;2800;49.528;8.666;2023-06-26T00:28:41;7.43;;;5.67;;
5553;SDS011;2800;49.528;8.666;2023-06-26T00:31:07;6.93;;;5.37;;
5553;SDS011;2800;49.528;8.666;2023-06-26T00:33:32;9.93;;;5.77;;
5553;SDS011;2800;49.528;8.666;2023-06-26T00:35:58;8.10;;;5.27;;
5553;SDS011;2800;49.528;8.666;2023-06-26T00:38:24;12.83;;;5.67;;
5553;SDS011;2800;49.528;8.666;2023-06-26T00:40:49;8.70;;;5.17;;
5553;SDS011;2800;49.528;8.666;2023-06-26T00:43:15;9.13;;;5.37;;
5553;SDS011;2800;49.528;8.666;2023-06-26T00:45:40;7.87;;;5.50;;
5553;SDS011;2800;49.528;8.666;2023-06-26T00:48:06;7.70;;;5.47;;
5553;SDS011;2800;49.528;8.666;2023-06-26T00:50:32;6.97;;;5.20;;
5553;SDS011;2800;49.528;8.666;2023-06-26T00:52:57;8.17;;;5.20;;
5553;SDS011;2800;49.528;8.666;2023-06-26T00:55:25;6.83;;;5.00;;
5553;SDS011;2800;49.528;8.666;2023-06-26T00:57:52;10.87;;;5.40;;
5553;SDS011;2800;49.528;8.666;2023-06-26T01:00:18;8.63;;;5.33;;
5553;SDS011;2800;49.528;8.666;2023-06-26T01:02:44;7.60;;;5.30;;
5553;SDS011;2800;49.528;8.666;2023-06-26T01:05:10;9.03;;;5.70;;
5553;SDS011;2800;49.528;8.666;2023-06-26T01:07:37;7.23;;;5.60;;
5553;SDS011;2800;49.528;8.666;2023-06-26T01:10:04;7.17;;;5.27;;
5553;SDS011;2800;49.528;8.666;2023-06-26T01:12:31;8.10;;;5.93;;
5553;SDS011;2800;49.528;8.666;2023-06-26T01:14:58;7.60;;;5.17;;
5553;SDS011;2800;49.528;8.666;2023-06-26T01:17:24;7.50;;;5.83;;
5553;SDS011;2800;49.528;8.666;2023-06-26T01:19:56;8.57;;;5.93;;
5553;SDS011;2800;49.528;8.666;2023-06-26T01:22:31;8.73;;;5.80;;
5553;SDS011;2800;49.528;8.666;2023-06-26T01:25:23;8.50;;;5.43;;
5553;SDS011;2800;49.528;8.666;2023-06-26T01:28:03;8.90;;;5.60;;
5553;SDS011;2800;49.528;8.666;2023-06-26T01:30:30;9.80;;;5.67;;
5553;SDS011;2800;49.528;8.666;2023-06-26T01:32:58;10.70;;;6.13;;
5553;SDS011;2800;49.528;8.666;2023-06-26T01:35:24;7.33;;;5.50;;
5553;SDS011;2800;49.528;8.666;2023-06-26T01:37:51;9.00;;;6.00;;
5553;SDS011;2800;49.528;8.666;2023-06-26T01:40:17;10.77;;;5.70;;
5553;SDS011;2800;49.528;8.666;2023-06-26T01:42:42;7.13;;;5.70;;
5553;SDS011;2800;49.528;8.666;2023-06-26T01:45:12;8.10;;;5.20;;
5553;SDS011;2800;49.528;8.666;2023-06-26T01:47:44;9.33;;;5.63;;
5553;SDS011;2800;49.528;8.666;2023-06-26T01:50:17;7.87;;;5.37;;
5553;SDS011;2800;49.528;8.666;2023-06-26T01:52:55;7.47;;;5.70;;
5553;SDS011;2800;49.528;8.666;2023-06-26T01:58:06;8.23;;;5.97;;
5553;SDS011;2800;49.528;8.666;2023-06-26T02:00:32;9.13;;;5.93;;
5553;SDS011;2800;49.528;8.666;2023-06-26T02:02:58;8.63;;;5.60;;
5553;SDS011;2800;49.528;8.666;2023-06-26T02:05:24;7.90;;;5.93;;
5553;SDS011;2800;49.528;8.666;2023-06-26T02:07:49;8.03;;;5.80;;
5553;SDS011;2800;49.528;8.666;2023-06-26T02:10:16;8.30;;;5.93;;
5553;SDS011;2800;49.528;8.666;2023-06-26T02:12:41;7.63;;;5.70;;
5553;SDS011;2800;49.528;8.666;2023-06-26T02:15:07;8.57;;;6.20;;
5553;SDS011;2800;49.528;8.666;2023-06-26T02:17:33;9.70;;;7.27;;
5553;SDS011;2800;49.528;8.666;2023-06-26T02:19:59;7.00;;;5.23;;
5553;SDS011;2800;49.528;8.666;2023-06-26T02:22:24;11.27;;;5.90;;
5553;SDS011;2800;49.528;8.666;2023-06-26T02:24:50;8.83;;;6.40;;
5553;SDS011;2800;49.528;8.666;2023-06-26T02:27:16;8.20;;;5.70;;
5553;SDS011;2800;49.528;8.666;2023-06-26T02:29:44;8.80;;;6.10;;
5553;SDS011;2800;49.528;8.666;2023-06-26T02:32:10;8.23;;;5.47;;
5553;SDS011;2800;49.528;8.666;2023-06-26T02:34:35;7.53;;;5.70;;
5553;SDS011;2800;49.528;8.666;2023-06-26T02:37:01;8.20;;;5.90;;
5553;SDS011;2800;49.528;8.666;2023-06-26T02:39:27;8.27;;;5.60;;
5553;SDS011;2800;49.528;8.666;2023-06-26T02:41:53;7.60;;;5.87;;
5553;SDS011;2800;49.528;8.666;2023-06-26T02:44:18;7.97;;;6.33;;
5553;SDS011;2800;49.528;8.666;2023-06-26T02:46:44;7.90;;;6.10;;
5553;SDS011;2800;49.528;8.666;2023-06-26T02:49:10;9.30;;;5.73;;
5553;SDS011;2800;49.528;8.666;2023-06-26T02:51:35;8.90;;;6.37;;
5553;SDS011;2800;49.528;8.666;2023-06-26T02:54:01;9.77;;;6.10;;
5553;SDS011;2800;49.528;8.666;2023-06-26T02:56:27;13.80;;;6.47;;
5553;SDS011;2800;49.528;8.666;2023-06-26T02:58:53;9.00;;;6.50;;
5553;SDS011;2800;49.528;8.666;2023-06-26T03:01:19;8.20;;;5.60;;
5553;SDS011;2800;49.528;8.666;2023-06-26T03:03:46;8.47;;;6.17;;
5553;SDS011;2800;49.528;8.666;2023-06-26T03:06:12;9.67;;;6.60;;
5553;SDS011;2800;49.528;8.666;2023-06-26T03:08:38;8.53;;;6.30;;
5553;SDS011;2800;49.528;8.666;2023-06-26T03:11:04;8.40;;;6.70;;
5553;SDS011;2800;49.528;8.666;2023-06-26T03:13:31;9.20;;;6.33;;
5553;SDS011;2800;49.528;8.666;2023-06-26T03:15:57;9.00;;;6.57;;
5553;SDS011;2800;49.528;8.666;2023-06-26T03:18:23;8.43;;;6.70;;
5553;SDS011;2800;49.528;8.666;2023-06-26T03:20:48;8.17;;;5.87;;
5553;SDS011;2800;49.528;8.666;2023-06-26T03:23:14;8.13;;;6.50;;
5553;SDS011;2800;49.528;8.666;2023-06-26T03:25:39;9.13;;;6.63;;
5553;SDS011;2800;49.528;8.666;2023-06-26T03:28:05;11.60;;;7.00;;
5553;SDS011;2800;49.528;8.666;2023-06-26T03:30:30;9.17;;;6.40;;
5553;SDS011;2800;49.528;8.666;2023-06-26T03:32:56;9.37;;;6.47;;
5553;SDS011;2800;49.528;8.666;2023-06-26T03:35:21;9.70;;;7.10;;
5553;SDS011;2800;49.528;8.666;2023-06-26T03:37:48;9.83;;;6.70;;
5553;SDS011;2800;49.528;8.666;2023-06-26T03:40:14;11.07;;;7.50;;
5553;SDS011;2800;49.528;8.666;2023-06-26T03:42:39;10.13;;;6.80;;
5553;SDS011;2800;49.528;8.666;2023-06-26T03:45:05;12.13;;;7.20;;
5553;SDS011;2800;49.528;8.666;2023-06-26T03:47:31;10.50;;;7.53;;
5553;SDS011;2800;49.528;8.666;2023-06-26T03:49:56;13.10;;;8.00;;
5553;SDS011;2800;49.528;8.666;2023-06-26T03:52:22;9.77;;;7.57;;
5553;SDS011;2800;49.528;8.666;2023-06-26T03:54:48;12.30;;;7.10;;
5553;SDS011;2800;49.528;8.666;2023-06-26T03:57:14;9.40;;;6.53;;
5553;SDS011;2800;49.528;8.666;2023-06-26T03:59:39;10.90;;;8.10;;
5553;SDS011;2800;49.528;8.666;2023-06-26T04:02:05;9.83;;;7.07;;
5553;SDS011;2800;49.528;8.666;2023-06-26T04:04:30;9.80;;;7.40;;
5553;SDS011;2800;49.528;8.666;2023-06-26T04:06:56;11.40;;;7.50;;
5553;SDS011;2800;49.528;8.666;2023-06-26T04:09:24;11.77;;;9.07;;
5553;SDS011;2800;49.528;8.666;2023-06-26T04:11:50;11.77;;;8.20;;
5553;SDS011;2800;49.528;8.666;2023-06-26T04:14:15;10.67;;;7.73;;
5553;SDS011;2800;49.528;8.666;2023-06-26T04:16:41;11.17;;;8.07;;
5553;SDS011;2800;49.528;8.666;2023-06-26T04:19:07;12.40;;;8.80;;
5553;SDS011;2800;49.528;8.666;2023-06-26T04:21:33;17.87;;;8.17;;
5553;SDS011;2800;49.528;8.666;2023-06-26T04:23:58;12.10;;;8.50;;
5553;SDS011;2800;49.528;8.666;2023-06-26T04:26:24;13.27;;;7.73;;
5553;SDS011;2800;49.528;8.666;2023-06-26T04:28:49;10.70;;;8.20;;
5553;SDS011;2800;49.528;8.666;2023-06-26T04:31:15;11.50;;;8.53;;
5553;SDS011;2800;49.528;8.666;2023-06-26T04:33:40;13.50;;;8.77;;
5553;SDS011;2800;49.528;8.666;2023-06-26T04:36:06;10.90;;;8.03;;
5553;SDS011;2800;49.528;8.666;2023-06-26T04:38:32;11.90;;;8.30;;
5553;SDS011;2800;49.528;8.666;2023-06-26T04:40:58;11.40;;;8.50;;
5553;SDS011;2800;49.528;8.666;2023-06-26T04:43:24;11.57;;;8.03;;
5553;SDS011;2800;49.528;8.666;2023-06-26T04:45:50;12.03;;;8.23;;
5553;SDS011;2800;49.528;8.666;2023-06-26T04:48:15;12.30;;;8.33;;
5553;SDS011;2800;49.528;8.666;2023-06-26T04:50:41;14.00;;;8.47;;
5553;SDS011;2800;49.528;8.666;2023-06-26T04:53:07;12.63;;;8.57;;
5553;SDS011;2800;49.528;8.666;2023-06-26T04:55:32;13.10;;;8.30;;
5553;SDS011;2800;49.528;8.666;2023-06-26T04:57:58;11.10;;;8.43;;
5553;SDS011;2800;49.528;8.666;2023-06-26T05:00:23;12.80;;;8.60;;
5553;SDS011;2800;49.528;8.666;2023-06-26T05:02:49;10.43;;;7.80;;
5553;SDS011;2800;49.528;8.666;2023-06-26T05:05:23;10.23;;;7.40;;
5553;SDS011;2800;49.528;8.666;2023-06-26T05:07:52;11.90;;;7.57;;
5553;SDS011;2800;49.528;8.666;2023-06-26T05:10:18;12.30;;;8.80;;
5553;SDS011;2800;49.528;8.666;2023-06-26T05:12:44;11.00;;;8.17;;
5553;SDS011;2800;49.528;8.666;2023-06-26T05:15:09;10.70;;;8.10;;
5553;SDS011;2800;49.528;8.666;2023-06-26T05:17:35;11.93;;;8.30;;
5553;SDS011;2800;49.528;8.666;2023-06-26T05:20:00;11.80;;;8.00;;
5553;SDS011;2800;49.528;8.666;2023-06-26T05:22:26;10.33;;;7.70;;
5553;SDS011;2800;49.528;8.666;2023-06-26T05:24:52;12.50;;;8.30;;
5553;SDS011;2800;49.528;8.666;2023-06-26T05:27:20;15.77;;;8.90;;
5553;SDS011;2800;49.528;8.666;2023-06-26T05:29:47;11.73;;;8.20;;
5553;SDS011;2800;49.528;8.666;2023-06-26T05:32:14;11.50;;;7.77;;
5553;SDS011;2800;49.528;8.666;2023-06-26T05:34:42;11.50;;;8.50;;
5553;SDS011;2800;49.528;8.666;2023-06-26T05:37:12;11.83;;;8.00;;
5553;SDS011;2800;49.528;8.666;2023-06-26T05:39:44;11.40;;;7.97;;
5553;SDS011;2800;49.528;8.666;2023-06-26T05:42:10;11.63;;;7.97;;
5553;SDS011;2800;49.528;8.666;2023-06-26T05:44:36;17.40;;;8.37;;
5553;SDS011;2800;49.528;8.666;2023-06-26T05:47:01;11.07;;;8.47;;
5553;SDS011;2800;49.528;8.666;2023-06-26T05:49:27;12.00;;;8.63;;
5553;SDS011;2800;49.528;8.666;2023-06-26T05:51:52;12.77;;;8.80;;
5553;SDS011;2800;49.528;8.666;2023-06-26T05:54:18;18.93;;;9.00;;
5553;SDS011;2800;49.528;8.666;2023-06-26T05:56:44;14.40;;;8.90;;
5553;SDS011;2800;49.528;8.666;2023-06-26T05:59:11;12.30;;;8.40;;
5553;SDS011;2800;49.528;8.666;2023-06-26T06:01:38;11.37;;;8.90;;
5553;SDS011;2800;49.528;8.666;2023-06-26T06:04:03;14.20;;;8.90;;
5553;SDS011;2800;49.528;8.666;2023-06-26T06:06:29;12.70;;;8.77;;
5553;SDS011;2800;49.528;8.666;2023-06-26T06:08:54;11.73;;;7.90;;
5553;SDS011;2800;49.528;8.666;2023-06-26T06:11:20;11.10;;;8.67;;
5553;SDS011;2800;49.528;8.666;2023-06-26T06:13:45;14.87;;;8.53;;
5553;SDS011;2800;49.528;8.666;2023-06-26T06:16:11;14.50;;;9.60;;
5553;SDS011;2800;49.528;8.666;2023-06-26T06:18:36;13.63;;;8.90;;
5553;SDS011;2800;49.528;8.666;2023-06-26T06:21:02;11.37;;;8.50;;
5553;SDS011;2800;49.528;8.666;2023-06-26T06:23:27;12.63;;;8.13;;
5553;SDS011;2800;49.528;8.666;2023-06-26T06:25:53;12.10;;;8.57;;
5553;SDS011;2800;49.528;8.666;2023-06-26T06:28:18;13.83;;;8.73;;
5553;SDS011;2800;49.528;8.666;2023-06-26T06:30:44;12.70;;;8.50;;
5553;SDS011;2800;49.528;8.666;2023-06-26T06:33:12;12.30;;;8.90;;
5553;SDS011;2800;49.528;8.666;2023-06-26T06:35:38;12.23;;;8.50;;
5553;SDS011;2800;49.528;8.666;2023-06-26T06:38:03;11.07;;;7.60;;
5553;SDS011;2800;49.528;8.666;2023-06-26T06:40:29;12.90;;;8.93;;
5553;SDS011;2800;49.528;8.666;2023-06-26T06:42:54;12.67;;;8.63;;
5553;SDS011;2800;49.528;8.666;2023-06-26T06:45:20;9.60;;;7.83;;
5553;SDS011;2800;49.528;8.666;2023-06-26T06:47:45;13.03;;;8.40;;
5553;SDS011;2800;49.528;8.666;2023-06-26T06:50:11;14.10;;;9.07;;
5553;SDS011;2800;49.528;8.666;2023-06-26T06:52:37;12.50;;;8.47;;
5553;SDS011;2800;49.528;8.666;2023-06-26T06:55:05;14.80;;;8.60;;
5553;SDS011;2800;49.528;8.666;2023-06-26T06:57:33;13.50;;;8.83;;
5553;SDS011;2800;49.528;8.666;2023-06-26T07:00:04;10.90;;;7.10;;
5553;SDS011;2800;49.528;8.666;2023-06-26T07:02:38;12.23;;;8.25;;
5553;SDS011;2800;49.528;8.666;2023-06-26T07:05:04;12.13;;;8.37;;
5553;SDS011;2800;49.528;8.666;2023-06-26T07:07:31;13.73;;;8.60;;
5553;SDS011;2800;49.528;8.666;2023-06-26T07:10:07;11.60;;;7.63;;
5553;SDS011;2800;49.528;8.666;2023-06-26T07:12:34;10.17;;;7.57;;
5553;SDS011;2800;49.528;8.666;2023-06-26T07:15:01;15.80;;;9.10;;
5553;SDS011;2800;49.528;8.666;2023-06-26T07:17:28;15.27;;;8.10;;
5553;SDS011;2800;49.528;8.666;2023-06-26T07:19:53;14.60;;;8.97;;
5553;SDS011;2800;49.528;8.666;2023-06-26T07:22:19;12.30;;;8.40;;
5553;SDS011;2800;49.528;8.666;2023-06-26T07:24:46;10.87;;;8.93;;
5553;SDS011;2800;49.528;8.666;2023-06-26T07:27:12;16.20;;;9.10;;
5553;SDS011;2800;49.528;8.666;2023-06-26T07:29:39;15.50;;;9.13;;
5553;SDS011;2800;49.528;8.666;2023-06-26T07:32:05;14.83;;;9.00;;
5553;SDS011;2800;49.528;8.666;2023-06-26T07:34:30;11.40;;;9.10;;
5553;SDS011;2800;49.528;8.666;2023-06-26T07:36:56;15.73;;;8.17;;
5553;SDS011;2800;49.528;8.666;2023-06-26T07:39:21;12.90;;;8.87;;
5553;SDS011;2800;49.528;8.666;2023-06-26T07:41:47;18.63;;;8.67;;
5553;SDS011;2800;49.528;8.666;2023-06-26T07:44:12;13.60;;;8.97;;
5553;SDS011;2800;49.528;8.666;2023-06-26T07:46:39;12.90;;;8.43;;
5553;SDS011;2800;49.528;8.666;2023-06-26T07:49:04;19.60;;;9.00;;
5553;SDS011;2800;49.528;8.666;2023-06-26T07:51:30;13.97;;;9.40;;
5553;SDS011;2800;49.528;8.666;2023-06-26T07:53:55;12.40;;;8.70;;
5553;SDS011;2800;49.528;8.666;2023-06-26T07:56:21;12.70;;;8.87;;
5553;SDS011;2800;49.528;8.666;2023-06-26T07:58:46;15.97;;;9.57;;
5553;SDS011;2800;49.528;8.666;2023-06-26T08:01:12;13.90;;;8.67;;
5553;SDS011;2800;49.528;8.666;2023-06-26T08:03:37;13.17;;;8.97;;
5553;SDS011;2800;49.528;8.666;2023-06-26T08:06:03;11.30;;;8.43;;
5553;SDS011;2800;49.528;8.666;2023-06-26T08:08:29;11.90;;;9.50;;
5553;SDS011;2800;49.528;8.666;2023-06-26T08:10:54;15.23;;;8.80;;
5553;SDS011;2800;49.528;8.666;2023-06-26T08:13:20;12.30;;;8.80;;
5553;SDS011;2800;49.528;8.666;2023-06-26T08:15:45;15.60;;;9.03;;
5553;SDS011;2800;49.528;8.666;2023-06-26T08:18:11;13.17;;;8.17;;
5553;SDS011;2800;49.528;8.666;2023-06-26T08:20:36;13.27;;;8.70;;
5553;SDS011;2800;49.528;8.666;2023-06-26T08:23:03;10.03;;;8.20;;
5553;SDS011;2800;49.528;8.666;2023-06-26T08:25:29;13.03;;;9.40;;
5553;SDS011;2800;49.528;8.666;2023-06-26T08:27:55;13.80;;;9.73;;
5553;SDS011;2800;49.528;8.666;2023-06-26T08:30:21;14.63;;;9.60;;
5553;SDS011;2800;49.528;8.666;2023-06-26T08:32:46;11.93;;;8.80;;
5553;SDS011;2800;49.528;8.666;2023-06-26T08:35:12;13.63;;;8.87;;
5553;SDS011;2800;49.528;8.666;2023-06-26T08:37:38;15.77;;;9.10;;
5553;SDS011;2800;49.528;8.666;2023-06-26T08:40:03;12.93;;;9.20;;
5553;SDS011;2800;49.528;8.666;2023-06-26T08:42:29;14.20;;;9.23;;
5553;SDS011;2800;49.528;8.666;2023-06-26T08:44:55;12.30;;;9.33;;
5553;SDS011;2800;49.528;8.666;2023-06-26T08:47:21;15.30;;;9.50;;
5553;SDS011;2800;49.528;8.666;2023-06-26T08:49:51;11.90;;;8.67;;
5553;SDS011;2800;49.528;8.666;2023-06-26T08:52:23;12.00;;;9.07;;
5553;SDS011;2800;49.528;8.666;2023-06-26T08:54:56;14.53;;;8.57;;
5553;SDS011;2800;49.528;8.666;2023-06-26T08:57:23;11.63;;;7.80;;
5553;SDS011;2800;49.528;8.666;2023-06-26T08:59:51;12.67;;;7.97;;
5553;SDS011;2800;49.528;8.666;2023-06-26T09:02:17;12.57;;;8.03;;
5553;SDS011;2800;49.528;8.666;2023-06-26T09:04:43;14.83;;;10.70;;
5553;SDS011;2800;49.528;8.666;2023-06-26T09:07:08;12.23;;;8.63;;
5553;SDS011;2800;49.528;8.666;2023-06-26T09:09:34;13.13;;;8.13;;
5553;SDS011;2800;49.528;8.666;2023-06-26T09:12:04;14.77;;;9.13;;
5553;SDS011;2800;49.528;8.666;2023-06-26T09:14:30;12.13;;;9.70;;
5553;SDS011;2800;49.528;8.666;2023-06-26T09:16:55;20.53;;;9.00;;
5553;SDS011;2800;49.528;8.666;2023-06-26T09:19:21;12.87;;;8.27;;
5553;SDS011;2800;49.528;8.666;2023-06-26T09:21:48;15.80;;;7.87;;
5553;SDS011;2800;49.528;8.666;2023-06-26T09:24:14;22.13;;;8.90;;
5553;SDS011;2800;49.528;8.666;2023-06-26T09:26:42;12.07;;;8.83;;
5553;SDS011;2800;49.528;8.666;2023-06-26T09:29:08;15.73;;;8.60;;
5553;SDS011;2800;49.528;8.666;2023-06-26T09:31:38;12.00;;;7.93;;
5553;SDS011;2800;49.528;8.666;2023-06-26T09:34:04;18.40;;;7.63;;
5553;SDS011;2800;49.528;8.666;2023-06-26T09:36:30;20.80;;;8.37;;
5553;SDS011;2800;49.528;8.666;2023-06-26T09:38:58;13.30;;;8.07;;
5553;SDS011;2800;49.528;8.666;2023-06-26T09:41:26;10.30;;;7.73;;
5553;SDS011;2800;49.528;8.666;2023-06-26T09:43:52;11.17;;;7.40;;
5553;SDS011;2800;49.528;8.666;2023-06-26T09:46:24;9.50;;;6.87;;
5553;SDS011;2800;49.528;8.666;2023-06-26T09:49:04;11.43;;;7.03;;
5553;SDS011;2800;49.528;8.666;2023-06-26T09:51:35;9.53;;;6.77;;
5553;SDS011;2800;49.528;8.666;2023-06-26T09:54:01;9.77;;;6.67;;
5553;SDS011;2800;49.528;8.666;2023-06-26T09:56:29;12.60;;;6.50;;
5553;SDS011;2800;49.528;8.666;2023-06-26T09:58:55;11.27;;;6.30;;
5553;SDS011;2800;49.528;8.666;2023-06-26T10:01:25;9.60;;;7.17;;
5553;SDS011;2800;49.528;8.666;2023-06-26T10:03:51;12.80;;;7.03;;
5553;SDS011;2800;49.528;8.666;2023-06-26T10:06:36;11.07;;;7.40;;
5553;SDS011;2800;49.528;8.666;2023-06-26T10:09:04;13.20;;;7.40;;
5553;SDS011;2800;49.528;8.666;2023-06-26T10:11:32;11.40;;;7.30;;
5553;SDS011;2800;49.528;8.666;2023-06-26T10:14:09;11.43;;;7.77;;
5553;SDS011;2800;49.528;8.666;2023-06-26T10:16:36;10.27;;;7.43;;
5553;SDS011;2800;49.528;8.666;2023-06-26T10:19:05;12.10;;;7.70;;
5553;SDS011;2800;49.528;8.666;2023-06-26T10:21:34;11.97;;;7.30;;
5553;SDS011;2800;49.528;8.666;2023-06-26T10:24:02;10.20;;;7.27;;
5553;SDS011;2800;49.528;8.666;2023-06-26T10:26:29;10.93;;;8.20;;
5553;SDS011;2800;49.528;8.666;2023-06-26T10:28:57;19.47;;;8.60;;
5553;SDS011;2800;49.528;8.666;2023-06-26T10:31:24;13.10;;;7.87;;
5553;SDS011;2800;49.528;8.666;2023-06-26T10:33:53;11.50;;;8.27;;
5553;SDS011;2800;49.528;8.666;2023-06-26T10:36:20;10.90;;;8.00;;
5553;SDS011;2800;49.528;8.666;2023-06-26T10:38:54;14.40;;;8.23;;
5553;SDS011;2800;49.528;8.666;2023-06-26T10:41:22;9.93;;;8.17;;
5553;SDS011;2800;49.528;8.666;2023-06-26T10:44:05;10.63;;;8.20;;
5553;SDS011;2800;49.528;8.666;2023-06-26T10:49:15;9.50;;;7.70;;
5553;SDS011;2800;49.528;8.666;2023-06-26T10:51:51;12.17;;;8.53;;
5553;SDS011;2800;49.528;8.666;2023-06-26T10:54:18;18.03;;;13.23;;
5553;SDS011;2800;49.528;8.666;2023-06-26T10:56:46;13.10;;;7.80;;
5553;SDS011;2800;49.528;8.666;2023-06-26T10:59:13;13.60;;;8.50;;
5553;SDS011;2800;49.528;8.666;2023-06-26T11:01:41;14.93;;;8.67;;
5553;SDS011;2800;49.528;8.666;2023-06-26T11:04:07;9.83;;;8.70;;
5553;SDS011;2800;49.528;8.666;2023-06-26T11:06:34;10.33;;;7.87;;
5553;SDS011;2800;49.528;8.666;2023-06-26T11:09:01;9.70;;;8.00;;
5553;SDS011;2800;49.528;8.666;2023-06-26T11:14:27;10.87;;;7.07;;
5553;SDS011;2800;49.528;8.666;2023-06-26T11:16:55;11.37;;;7.50;;
5553;SDS011;2800;49.528;8.666;2023-06-26T11:19:21;10.50;;;7.20;;
5553;SDS011;2800;49.528;8.666;2023-06-26T11:21:47;14.17;;;7.40;;
5553;SDS011;2800;49.528;8.666;2023-06-26T11:24:13;12.00;;;7.13;;
5553;SDS011;2800;49.528;8.666;2023-06-26T11:26:39;11.97;;;7.63;;
5553;SDS011;2800;49.528;8.666;2023-06-26T11:29:06;14.70;;;7.97;;
5553;SDS011;2800;49.528;8.666;2023-06-26T11:31:35;12.77;;;8.03;;
5553;SDS011;2800;49.528;8.666;2023-06-26T11:34:04;17.67;;;8.97;;
5553;SDS011;2800;49.528;8.666;2023-06-26T11:36:35;12.90;;;8.80;;
5553;SDS011;2800;49.528;8.666;2023-06-26T11:39:02;10.90;;;8.70;;
5553;SDS011;2800;49.528;8.666;2023-06-26T11:41:31;11.90;;;8.60;;
5553;SDS011;2800;49.528;8.666;2023-06-26T11:44:00;11.03;;;8.07;;
5553;SDS011;2800;49.528;8.666;2023-06-26T11:46:27;11.90;;;8.67;;
5553;SDS011;2800;49.528;8.666;2023-06-26T11:48:53;13.93;;;8.73;;
5553;SDS011;2800;49.528;8.666;2023-06-26T11:51:19;13.37;;;8.47;;
5553;SDS011;2800;49.528;8.666;2023-06-26T11:53:45;16.83;;;8.80;;
5553;SDS011;2800;49.528;8.666;2023-06-26T11:56:12;12.07;;;8.60;;
5553;SDS011;2800;49.528;8.666;2023-06-26T12:01:33;14.47;;;8.70;;
5553;SDS011;2800;49.528;8.666;2023-06-26T12:04:09;20.63;;;8.03;;
5553;SDS011;2800;49.528;8.666;2023-06-26T12:06:37;10.63;;;7.30;;
5553;SDS011;2800;49.528;8.666;2023-06-26T12:09:05;9.63;;;7.07;;
5553;SDS011;2800;49.528;8.666;2023-06-26T12:11:32;10.10;;;7.17;;
5553;SDS011;2800;49.528;8.666;2023-06-26T12:13:59;10.53;;;7.50;;
5553;SDS011;2800;49.528;8.666;2023-06-26T12:16:27;25.43;;;7.70;;
5553;SDS011;2800;49.528;8.666;2023-06-26T12:19:04;12.47;;;6.53;;
5553;SDS011;2800;49.528;8.666;2023-06-26T12:24:01;15.27;;;6.00;;
5553;SDS011;2800;49.528;8.666;2023-06-26T12:26:27;14.47;;;6.13;;
5553;SDS011;2800;49.528;8.666;2023-06-26T12:29:17;11.03;;;5.60;;
5553;SDS011;2800;49.528;8.666;2023-06-26T12:31:44;12.83;;;6.47;;
5553;SDS011;2800;49.528;8.666;2023-06-26T12:34:14;9.47;;;6.47;;
5553;SDS011;2800;49.528;8.666;2023-06-26T12:36:44;10.60;;;6.17;;
5553;SDS011;2800;49.528;8.666;2023-06-26T12:39:12;11.93;;;6.37;;
5553;SDS011;2800;49.528;8.666;2023-06-26T12:41:47;11.67;;;6.67;;
5553;SDS011;2800;49.528;8.666;2023-06-26T12:44:20;10.80;;;6.20;;
5553;SDS011;2800;49.528;8.666;2023-06-26T12:46:54;15.83;;;6.37;;
5553;SDS011;2800;49.528;8.666;2023-06-26T12:49:28;17.00;;;6.77;;
5553;SDS011;2800;49.528;8.666;2023-06-26T12:52:01;12.03;;;6.63;;
5553;SDS011;2800;49.528;8.666;2023-06-26T12:54:29;12.80;;;6.43;;
5553;SDS011;2800;49.528;8.666;2023-06-26T12:56:55;10.80;;;5.97;;
5553;SDS011;2800;49.528;8.666;2023-06-26T12:59:21;10.00;;;6.20;;
5553;SDS011;2800;49.528;8.666;2023-06-26T13:01:47;9.77;;;6.07;;
5553;SDS011;2800;49.528;8.666;2023-06-26T13:04:13;10.47;;;6.80;;
5553;SDS011;2800;49.528;8.666;2023-06-26T13:06:38;10.70;;;7.20;;
5553;SDS011;2800;49.528;8.666;2023-06-26T13:09:04;12.83;;;6.97;;
5553;SDS011;2800;49.528;8.666;2023-06-26T13:11:30;10.00;;;6.90;;
5553;SDS011;2800;49.528;8.666;2023-06-26T13:13:56;10.30;;;6.60;;
5553;SDS011;2800;49.528;8.666;2023-06-26T13:16:22;16.80;;;8.20;;
5553;SDS011;2800;49.528;8.666;2023-06-26T13:18:48;15.53;;;7.67;;
5553;SDS011;2800;49.528;8.666;2023-06-26T13:21:14;20.40;;;9.17;;
5553;SDS011;2800;49.528;8.666;2023-06-26T13:23:40;14.80;;;9.87;;
5553;SDS011;2800;49.528;8.666;2023-06-26T13:26:06;13.60;;;10.10;;
5553;SDS011;2800;49.528;8.666;2023-06-26T13:28:32;15.53;;;11.20;;
5553;SDS011;2800;49.528;8.666;2023-06-26T13:30:57;13.73;;;10.97;;
5553;SDS011;2800;49.528;8.666;2023-06-26T13:33:23;15.10;;;11.73;;
5553;SDS011;2800;49.528;8.666;2023-06-26T13:35:50;16.07;;;12.00;;
5553;SDS011;2800;49.528;8.666;2023-06-26T13:38:17;14.17;;;10.23;;
5553;SDS011;2800;49.528;8.666;2023-06-26T13:40:44;15.90;;;10.33;;
5553;SDS011;2800;49.528;8.666;2023-06-26T13:43:09;16.20;;;10.60;;
5553;SDS011;2800;49.528;8.666;2023-06-26T13:45:35;15.00;;;9.83;;
5553;SDS011;2800;49.528;8.666;2023-06-26T13:48:00;14.73;;;10.00;;
5553;SDS011;2800;49.528;8.666;2023-06-26T13:50:26;16.77;;;9.20;;
5553;SDS011;2800;49.528;8.666;2023-06-26T13:52:51;14.77;;;8.93;;
5553;SDS011;2800;49.528;8.666;2023-06-26T13:55:17;12.90;;;8.40;;
5553;SDS011;2800;49.528;8.666;2023-06-26T13:57:42;11.80;;;8.50;;
5553;SDS011;2800;49.528;8.666;2023-06-26T14:00:09;13.60;;;8.40;;
5553;SDS011;2800;49.528;8.666;2023-06-26T14:02:37;13.37;;;8.20;;
5553;SDS011;2800;49.528;8.666;2023-06-26T14:05:02;14.87;;;7.10;;
5553;SDS011;2800;49.528;8.666;2023-06-26T14:07:29;13.40;;;7.20;;
5553;SDS011;2800;49.528;8.666;2023-06-26T14:09:54;11.03;;;6.13;;
5553;SDS011;2800;49.528;8.666;2023-06-26T14:12:20;8.73;;;5.90;;
5553;SDS011;2800;49.528;8.666;2023-06-26T14:14:45;10.77;;;6.33;;
5553;SDS011;2800;49.528;8.666;2023-06-26T14:17:11;12.00;;;6.20;;
5553;SDS011;2800;49.528;8.666;2023-06-26T14:19:41;8.93;;;6.40;;
5553;SDS011;2800;49.528;8.666;2023-06-26T14:22:06;7.87;;;5.57;;
5553;SDS011;2800;49.528;8.666;2023-06-26T14:24:32;10.07;;;4.73;;
5553;SDS011;2800;49.528;8.666;2023-06-26T14:26:57;7.60;;;4.23;;
5553;SDS011;2800;49.528;8.666;2023-06-26T14:29:23;8.13;;;4.20;;
5553;SDS011;2800;49.528;8.666;2023-06-26T14:31:48;10.50;;;4.17;;
5553;SDS011;2800;49.528;8.666;2023-06-26T14:34:14;16.43;;;4.57;;
5553;SDS011;2800;49.528;8.666;2023-06-26T14:36:40;7.43;;;3.93;;
5553;SDS011;2800;49.528;8.666;2023-06-26T14:39:05;7.00;;;3.90;;
5553;SDS011;2800;49.528;8.666;2023-06-26T14:41:31;7.70;;;3.67;;
5553;SDS011;2800;49.528;8.666;2023-06-26T14:43:56;9.70;;;3.77;;
5553;SDS011;2800;49.528;8.666;2023-06-26T14:46:22;9.10;;;3.80;;
5553;SDS011;2800;49.528;8.666;2023-06-26T14:48:47;7.80;;;3.40;;
5553;SDS011;2800;49.528;8.666;2023-06-26T14:51:13;18.93;;;3.90;;
5553;SDS011;2800;49.528;8.666;2023-06-26T14:53:39;8.57;;;3.73;;
5553;SDS011;2800;49.528;8.666;2023-06-26T14:56:04;8.03;;;2.93;;
5553;SDS011;2800;49.528;8.666;2023-06-26T14:58:30;6.13;;;3.47;;
5553;SDS011;2800;49.528;8.666;2023-06-26T15:00:56;8.17;;;3.43;;
5553;SDS011;2800;49.528;8.666;2023-06-26T15:03:22;8.77;;;4.73;;
5553;SDS011;2800;49.528;8.666;2023-06-26T15:05:47;9.17;;;4.20;;
5553;SDS011;2800;49.528;8.666;2023-06-26T15:08:13;11.93;;;3.67;;
5553;SDS011;2800;49.528;8.666;2023-06-26T15:10:39;8.10;;;3.60;;
5553;SDS011;2800;49.528;8.666;2023-06-26T15:13:04;8.17;;;3.03;;
5553;SDS011;2800;49.528;8.666;2023-06-26T15:15:31;8.37;;;3.30;;
5553;SDS011;2800;49.528;8.666;2023-06-26T15:17:56;8.30;;;3.20;;